Time;durP1;ratioP1;P1;durP2;ratioP2;P2;SDS_P1;SDS_P2;PMS_P1;PMS_P2;Temp;Humidity;BMP_temperature;BMP_pressure;BME280_temperature;BME280_humidity;BME280_pressure;Samples;Min_cycle;Max_cycle;Signal;HPM_P1;HPM_P2
2022/06/25 00:00:13;;;;;;;;;;;21.20;99.90;;;;;;4592866;19;19919;-38
2022/06/25 00:02:04;;;;;;;;;;;21.30;99.90;;;;;;4592782;19;19921;-36
2022/06/25 00:03:35;;;;;;;;;;;21.20;99.90;;;;;;4593267;19;19927;-35
2022/06/25 00:06:55;;;;;;;;;;;21.30;99.90;;;;;;4592807;19;19939;-33
2022/06/25 00:08:26;;;;;;;;;;;21.30;99.90;;;;;;4592477;19;20286;-38
2022/06/25 00:09:57;;;;;;;;;;;21.30;99.90;;;;;;4593182;19;19914;-38
2022/06/25 00:13:18;;;;;;;;;;;21.30;99.90;;;;;;4593083;19;19921;-38
2022/06/25 00:14:49;;;;;;;;;;;21.30;99.90;;;;;;4591433;19;19929;-36
2022/06/25 00:16:20;;;;;;;;;;;21.30;99.90;;;;;;4592091;19;19915;-35
2022/06/25 00:17:51;;;;;;;;;;;21.30;99.90;;;;;;4592744;19;20272;-37
2022/06/25 00:19:23;;;;;;;;;;;21.30;99.90;;;;;;4593241;19;19914;-39
2022/06/25 00:20:54;;;;;;;;;;;21.30;99.90;;;;;;4592523;19;19922;-39
2022/06/25 00:22:25;;;;;;;;;;;21.30;99.90;;;;;;4591317;19;19919;-37
2022/06/25 00:23:56;;;;;;;;;;;21.30;99.90;;;;;;4592060;19;19914;-39
2022/06/25 00:25:27;;;;;;;;;;;21.30;99.90;;;;;;4592649;19;19978;-40
2022/06/25 00:26:58;;;;;;;;;;;21.30;99.90;;;;;;4591896;19;19910;-36
2022/06/25 00:28:29;;;;;;;;;;;21.30;99.90;;;;;;4591038;19;19936;-38
2022/06/25 00:30:00;;;;;;;;;;;21.30;99.90;;;;;;4592560;19;20342;-37
2022/06/25 00:31:31;;;;;;;;;;;21.30;99.90;;;;;;4592272;19;19914;-40
2022/06/25 00:33:02;;;;;;;;;;;21.30;99.90;;;;;;4592633;19;19981;-38
2022/06/25 00:34:33;;;;;;;;;;;21.20;99.90;;;;;;4591988;19;19925;-37
2022/06/25 00:36:04;;;;;;;;;;;21.30;99.90;;;;;;4592482;19;20249;-36
2022/06/25 00:37:35;;;;;;;;;;;21.30;99.90;;;;;;4592164;19;19907;-36
2022/06/25 00:39:06;;;;;;;;;;;21.30;99.90;;;;;;4592249;19;19925;-35
2022/06/25 00:40:37;;;;;;;;;;;21.30;99.90;;;;;;4592655;19;19914;-37
2022/06/25 00:42:09;;;;;;;;;;;21.30;99.90;;;;;;4592363;19;19957;-35
2022/06/25 00:43:40;;;;;;;;;;;21.20;99.90;;;;;;4592174;19;19947;-38
2022/06/25 00:45:11;;;;;;;;;;;21.20;99.90;;;;;;4592384;19;20000;-33
2022/06/25 00:46:45;;;;;;;;;;;21.20;99.90;;;;;;4592505;19;19914;-34
2022/06/25 00:48:16;;;;;;;;;;;21.20;99.90;;;;;;4590566;19;19927;-35
2022/06/25 00:49:47;;;;;;;;;;;21.20;99.90;;;;;;4591253;19;19919;-40
2022/06/25 00:51:18;;;;;;;;;;;21.20;99.90;;;;;;4591984;19;19994;-39
2022/06/25 00:52:50;;;;;;;;;;;21.20;99.90;;;;;;4591442;19;19925;-34
2022/06/25 00:54:21;;;;;;;;;;;21.20;99.90;;;;;;4590550;19;19971;-33
2022/06/25 00:55:52;;;;;;;;;;;21.20;99.90;;;;;;4590210;19;19923;-35
2022/06/25 00:57:24;;;;;;;;;;;21.20;99.90;;;;;;4591715;19;19925;-39
2022/06/25 00:58:55;;;;;;;;;;;21.20;99.90;;;;;;4591091;19;19911;-37
2022/06/25 01:00:26;;;;;;;;;;;21.20;99.90;;;;;;4590852;19;19975;-34
2022/06/25 01:01:57;;;;;;;;;;;21.20;99.90;;;;;;4591540;19;19918;-37
2022/06/25 01:03:28;;;;;;;;;;;21.20;99.90;;;;;;4590481;19;19931;-36
2022/06/25 01:04:59;;;;;;;;;;;21.20;99.90;;;;;;4591249;19;20262;-35
2022/06/25 01:06:31;;;;;;;;;;;21.20;99.90;;;;;;4591465;19;20276;-33
2022/06/25 01:08:02;;;;;;;;;;;21.20;99.90;;;;;;4590676;19;19918;-33
2022/06/25 01:09:33;;;;;;;;;;;21.10;99.90;;;;;;4592204;19;19932;-39
2022/06/25 01:11:04;;;;;;;;;;;21.10;99.90;;;;;;4591640;19;19936;-37
2022/06/25 01:12:36;;;;;;;;;;;21.10;99.90;;;;;;4591422;19;19978;-33
2022/06/25 01:14:07;;;;;;;;;;;21.10;99.90;;;;;;4590108;19;19911;-37
2022/06/25 01:15:38;;;;;;;;;;;21.10;99.90;;;;;;4591079;19;19914;-37
2022/06/25 01:17:09;;;;;;;;;;;21.10;99.90;;;;;;4591460;19;20234;-39
2022/06/25 01:18:41;;;;;;;;;;;21.10;99.90;;;;;;4590413;19;19922;-36
2022/06/25 01:20:12;;;;;;;;;;;21.10;99.90;;;;;;4590977;19;19915;-41
2022/06/25 01:21:42;;;;;;;;;;;21.10;99.90;;;;;;4591151;19;19921;-35
2022/06/25 01:23:13;;;;;;;;;;;21.10;99.90;;;;;;4591376;19;19974;-34
2022/06/25 01:24:45;;;;;;;;;;;21.10;99.90;;;;;;4591407;19;20253;-34
2022/06/25 01:26:15;;;;;;;;;;;21.10;99.90;;;;;;4591246;19;19919;-37
2022/06/25 01:27:46;;;;;;;;;;;21.10;99.90;;;;;;4590318;19;20322;-34
2022/06/25 01:29:17;;;;;;;;;;;21.10;99.90;;;;;;4591290;19;19911;-34
2022/06/25 01:30:48;;;;;;;;;;;21.10;99.90;;;;;;4591233;19;20330;-37
2022/06/25 01:32:19;;;;;;;;;;;21.10;99.90;;;;;;4591368;19;19926;-34
2022/06/25 01:33:50;;;;;;;;;;;21.10;99.90;;;;;;4591367;19;20302;-41
2022/06/25 01:35:21;;;;;;;;;;;21.10;99.90;;;;;;4591501;19;19929;-37
2022/06/25 01:36:52;;;;;;;;;;;21.00;99.90;;;;;;4591828;19;19974;-35
2022/06/25 01:38:23;;;;;;;;;;;21.10;99.90;;;;;;4591235;19;19915;-35
2022/06/25 01:39:54;;;;;;;;;;;21.00;99.90;;;;;;4589381;19;19910;-37
2022/06/25 01:41:25;;;;;;;;;;;21.00;99.90;;;;;;4590544;19;19951;-37
2022/06/25 01:42:59;;;;;;;;;;;21.00;99.90;;;;;;4589809;19;19921;-36
2022/06/25 01:44:30;;;;;;;;;;;21.00;99.90;;;;;;4589917;19;20357;-33
2022/06/25 01:46:01;;;;;;;;;;;21.00;99.90;;;;;;4589898;19;19922;-35
2022/06/25 01:47:32;;;;;;;;;;;21.00;99.90;;;;;;4590319;19;19915;-35
2022/06/25 01:49:03;;;;;;;;;;;21.00;99.90;;;;;;4591553;19;19911;-37
2022/06/25 01:50:36;;;;;;;;;;;21.00;99.90;;;;;;4590659;19;19919;-39
2022/06/25 01:52:07;;;;;;;;;;;21.00;99.90;;;;;;4590800;19;19978;-39
2022/06/25 01:53:38;;;;;;;;;;;21.00;99.90;;;;;;4589976;19;19933;-36
2022/06/25 01:55:09;;;;;;;;;;;21.00;99.90;;;;;;4590887;19;20319;-34
2022/06/25 01:56:40;;;;;;;;;;;21.00;99.90;;;;;;4590539;19;20261;-40
2022/06/25 01:58:11;;;;;;;;;;;21.00;99.90;;;;;;4591068;19;19918;-36
2022/06/25 01:59:42;;;;;;;;;;;21.00;99.90;;;;;;4591314;19;19921;-36
2022/06/25 02:01:13;;;;;;;;;;;21.00;99.90;;;;;;4589145;19;20322;-38
2022/06/25 02:02:44;;;;;;;;;;;21.00;99.90;;;;;;4588113;19;19923;-39
2022/06/25 02:04:15;;;;;;;;;;;20.90;99.90;;;;;;4590462;19;19924;-39
2022/06/25 02:05:58;;;;;;;;;;;21.00;99.90;;;;;;4591225;19;19914;-36
2022/06/25 02:07:29;;;;;;;;;;;20.90;99.90;;;;;;4589758;19;19915;-36
2022/06/25 02:09:00;;;;;;;;;;;20.90;99.90;;;;;;4590501;19;19915;-34
2022/06/25 02:10:31;;;;;;;;;;;20.90;99.90;;;;;;4590983;19;19915;-36
2022/06/25 02:12:03;;;;;;;;;;;20.90;99.90;;;;;;4590726;19;19923;-33
2022/06/25 02:13:34;;;;;;;;;;;20.90;99.90;;;;;;4590225;19;20235;-36
2022/06/25 02:15:07;;;;;;;;;;;20.90;99.90;;;;;;4589571;19;19923;-37
2022/06/25 02:16:38;;;;;;;;;;;20.90;99.90;;;;;;4590595;19;19928;-35
2022/06/25 02:18:10;;;;;;;;;;;20.90;99.90;;;;;;4590834;19;19926;-38
2022/06/25 02:19:41;;;;;;;;;;;20.90;99.90;;;;;;4590619;19;19978;-36
2022/06/25 02:21:13;;;;;;;;;;;20.90;99.90;;;;;;4590327;19;19918;-37
2022/06/25 02:22:44;;;;;;;;;;;20.90;99.90;;;;;;4590495;19;19911;-38
2022/06/25 02:24:15;;;;;;;;;;;20.90;99.90;;;;;;4590611;19;19944;-35
2022/06/25 02:25:46;;;;;;;;;;;20.90;99.90;;;;;;4590152;19;20374;-39
2022/06/25 02:27:17;;;;;;;;;;;20.90;99.90;;;;;;4590057;19;19911;-38
2022/06/25 02:28:48;;;;;;;;;;;20.90;99.90;;;;;;4590436;19;19914;-36
2022/06/25 02:30:19;;;;;;;;;;;20.90;99.90;;;;;;4590097;19;20256;-34
2022/06/25 02:31:50;;;;;;;;;;;20.90;99.90;;;;;;4590358;19;19923;-36
2022/06/25 02:33:21;;;;;;;;;;;20.90;99.90;;;;;;4590105;19;19914;-34
2022/06/25 02:34:52;;;;;;;;;;;20.90;99.90;;;;;;4589906;19;19978;-39
2022/06/25 02:36:23;;;;;;;;;;;20.90;99.90;;;;;;4589951;19;20304;-35
2022/06/25 02:37:54;;;;;;;;;;;20.90;99.90;;;;;;4588836;19;20390;-33
2022/06/25 02:39:25;;;;;;;;;;;20.90;99.90;;;;;;4589571;19;19914;-40
2022/06/25 02:40:56;;;;;;;;;;;20.90;99.90;;;;;;4589285;19;19919;-37
2022/06/25 02:42:53;;;;;;;;;;;20.80;99.90;;;;;;4589597;19;19921;-39
2022/06/25 02:44:24;;;;;;;;;;;20.80;99.90;;;;;;4589682;19;19922;-34
2022/06/25 02:45:55;;;;;;;;;;;20.80;99.90;;;;;;4589985;19;20341;-37
2022/06/25 02:47:26;;;;;;;;;;;20.80;99.90;;;;;;4589831;19;20315;-37
2022/06/25 02:48:57;;;;;;;;;;;20.80;99.90;;;;;;4589774;19;19939;-39
2022/06/25 02:50:28;;;;;;;;;;;20.80;99.90;;;;;;4589855;19;19941;-38
2022/06/25 02:51:59;;;;;;;;;;;20.80;99.90;;;;;;4592841;19;20342;-36
2022/06/25 02:53:30;;;;;;;;;;;20.80;99.90;;;;;;4593965;19;19927;-41
2022/06/25 02:55:01;;;;;;;;;;;20.80;99.90;;;;;;4593908;19;19915;-36
2022/06/25 03:00:13;;;;;;;;;;;20.80;99.90;;;;;;4594426;19;19919;-39
2022/06/25 03:01:44;;;;;;;;;;;20.80;99.90;;;;;;4594168;19;19953;-40
2022/06/25 03:03:15;;;;;;;;;;;20.80;99.90;;;;;;4594026;19;19939;-43
2022/06/25 03:04:46;;;;;;;;;;;20.70;99.90;;;;;;4594653;19;19918;-35
2022/06/25 03:06:17;;;;;;;;;;;20.80;99.90;;;;;;4593668;19;20059;-37
2022/06/25 03:07:49;;;;;;;;;;;20.80;99.90;;;;;;4592407;19;19914;-37
2022/06/25 03:09:19;;;;;;;;;;;20.70;99.90;;;;;;4594328;19;20309;-36
2022/06/25 03:10:51;;;;;;;;;;;20.80;99.90;;;;;;4594107;19;19943;-39
2022/06/25 03:12:22;;;;;;;;;;;20.70;99.90;;;;;;4594178;19;19910;-35
2022/06/25 03:13:53;;;;;;;;;;;20.80;99.90;;;;;;4593885;19;19986;-38
2022/06/25 03:15:24;;;;;;;;;;;20.80;99.90;;;;;;4594188;19;19927;-35
2022/06/25 03:16:55;;;;;;;;;;;20.70;99.90;;;;;;4594058;19;19907;-41
2022/06/25 03:18:26;;;;;;;;;;;20.70;99.90;;;;;;4594148;19;19922;-35
2022/06/25 03:19:58;;;;;;;;;;;20.70;99.90;;;;;;4593696;19;19922;-35
2022/06/25 03:21:29;;;;;;;;;;;20.80;99.90;;;;;;4594260;19;19947;-36
2022/06/25 03:23:00;;;;;;;;;;;20.80;99.90;;;;;;4593737;19;19962;-36
2022/06/25 03:24:30;;;;;;;;;;;20.70;99.90;;;;;;4593656;19;20242;-36
2022/06/25 03:26:02;;;;;;;;;;;20.80;99.90;;;;;;4593786;19;19919;-35
2022/06/25 03:27:32;;;;;;;;;;;20.80;99.90;;;;;;4593319;19;20322;-34
2022/06/25 03:29:03;;;;;;;;;;;20.80;99.90;;;;;;4593879;19;19918;-33
2022/06/25 03:30:34;;;;;;;;;;;20.70;99.90;;;;;;4593471;19;20330;-40
2022/06/25 03:32:06;;;;;;;;;;;20.70;99.90;;;;;;4593694;19;19918;-33
2022/06/25 03:33:37;;;;;;;;;;;20.80;99.90;;;;;;4593440;19;19922;-38
2022/06/25 03:35:08;;;;;;;;;;;20.80;99.90;;;;;;4594066;19;19914;-34
2022/06/25 03:36:38;;;;;;;;;;;20.80;99.90;;;;;;4593570;19;19911;-37
2022/06/25 03:38:10;;;;;;;;;;;20.80;99.90;;;;;;4593764;19;19970;-36
2022/06/25 03:39:40;;;;;;;;;;;20.80;99.90;;;;;;4593705;19;19914;-39
2022/06/25 03:43:01;;;;;;;;;;;20.80;99.90;;;;;;4593294;19;19919;-36
2022/06/25 03:44:32;;;;;;;;;;;20.80;99.90;;;;;;4593634;19;19918;-33
2022/06/25 03:46:04;;;;;;;;;;;20.80;99.90;;;;;;4593832;19;19918;-37
2022/06/25 03:47:34;;;;;;;;;;;20.80;99.90;;;;;;4592645;19;19923;-39
2022/06/25 03:49:06;;;;;;;;;;;20.80;99.90;;;;;;4593266;19;19930;-37
2022/06/25 03:50:37;;;;;;;;;;;20.80;99.90;;;;;;4593605;19;19974;-35
2022/06/25 03:52:08;;;;;;;;;;;20.80;99.90;;;;;;4593615;19;19915;-34
2022/06/25 03:53:39;;;;;;;;;;;20.80;99.90;;;;;;4590986;19;20260;-36
2022/06/25 03:55:10;;;;;;;;;;;20.80;99.90;;;;;;4591408;19;20300;-35
2022/06/25 03:56:42;;;;;;;;;;;20.80;99.90;;;;;;4593093;19;19922;-39
2022/06/25 03:58:12;;;;;;;;;;;20.80;99.90;;;;;;4593505;19;19918;-35
2022/06/25 03:59:43;;;;;;;;;;;20.80;99.90;;;;;;4592881;19;20268;-36
2022/06/25 04:01:14;;;;;;;;;;;20.80;99.90;;;;;;4593007;19;19922;-35
2022/06/25 04:02:45;;;;;;;;;;;20.80;99.90;;;;;;4592627;19;19911;-36
2022/06/25 04:04:16;;;;;;;;;;;20.80;99.90;;;;;;4592191;19;19918;-34
2022/06/25 04:05:47;;;;;;;;;;;20.80;99.90;;;;;;4592723;19;19926;-40
2022/06/25 04:07:18;;;;;;;;;;;20.80;99.90;;;;;;4592649;19;19935;-34
2022/06/25 04:08:49;;;;;;;;;;;20.90;99.90;;;;;;4593026;19;20247;-34
2022/06/25 04:10:20;;;;;;;;;;;20.90;99.90;;;;;;4592637;19;19915;-37
2022/06/25 04:11:51;;;;;;;;;;;20.90;99.90;;;;;;4592953;19;19921;-34
2022/06/25 04:13:22;;;;;;;;;;;20.90;99.90;;;;;;4592879;19;19915;-42
2022/06/25 04:14:53;;;;;;;;;;;20.90;99.90;;;;;;4593578;19;19911;-35
2022/06/25 04:16:24;;;;;;;;;;;20.90;99.90;;;;;;4592482;19;20271;-35
2022/06/25 04:17:55;;;;;;;;;;;21.00;99.90;;;;;;4591726;19;19914;-37
2022/06/25 04:19:26;;;;;;;;;;;21.00;99.90;;;;;;4592147;19;19911;-37
2022/06/25 04:20:58;;;;;;;;;;;21.00;99.90;;;;;;4592749;19;19919;-38
2022/06/25 04:22:29;;;;;;;;;;;21.00;99.90;;;;;;4592582;19;19935;-39
2022/06/25 04:24:00;;;;;;;;;;;21.00;99.90;;;;;;4592614;19;19915;-40
2022/06/25 04:25:31;;;;;;;;;;;21.00;99.90;;;;;;4593146;19;19948;-38
2022/06/25 04:27:03;;;;;;;;;;;21.00;99.90;;;;;;4592285;19;19922;-35
2022/06/25 04:30:23;;;;;;;;;;;21.00;99.90;;;;;;4592378;19;20322;-37
2022/06/25 04:31:54;;;;;;;;;;;21.00;99.90;;;;;;4592036;19;19914;-42
2022/06/25 04:33:25;;;;;;;;;;;21.10;99.90;;;;;;4592111;19;19914;-41
2022/06/25 04:34:56;;;;;;;;;;;21.00;99.90;;;;;;4592529;19;20226;-36
2022/06/25 04:36:27;;;;;;;;;;;21.10;99.90;;;;;;4592287;19;19974;-38
2022/06/25 04:37:58;;;;;;;;;;;21.10;99.90;;;;;;4591130;19;19915;-37
2022/06/25 04:39:29;;;;;;;;;;;21.10;99.90;;;;;;4591669;19;20351;-36
2022/06/25 04:41:00;;;;;;;;;;;21.10;99.90;;;;;;4592236;19;19949;-36
2022/06/25 04:42:31;;;;;;;;;;;21.20;99.90;;;;;;4592216;19;20334;-39
2022/06/25 04:44:02;;;;;;;;;;;21.20;99.90;;;;;;4593008;19;20333;-35
2022/06/25 04:45:34;;;;;;;;;;;21.20;99.90;;;;;;4591444;19;20269;-34
2022/06/25 04:47:05;;;;;;;;;;;21.20;99.90;;;;;;4591665;19;19928;-39
2022/06/25 04:48:36;;;;;;;6.70;4.10;;;21.00;99.90;;;;;;4592657;19;19915;-36
2022/06/25 04:50:07;;;;;;;8.50;5.05;;;20.50;99.90;;;;;;4589149;19;20017;-35
2022/06/25 04:51:39;;;;;;;5.33;4.77;;;20.10;99.90;;;;;;4589230;19;20014;-35
2022/06/25 04:53:10;;;;;;;5.10;4.47;;;19.90;99.90;;;;;;4589165;19;20025;-41
2022/06/25 04:54:41;;;;;;;;;;;19.70;99.90;;;;;;4590392;19;20028;-35
2022/06/25 04:56:12;;;;;;;5.70;4.80;;;19.50;99.90;;;;;;4586850;19;19990;-36
2022/06/25 04:57:43;;;;;;;5.30;4.30;;;19.40;99.90;;;;;;4591329;19;20004;-35
2022/06/25 04:59:18;;;;;;;;;;;19.40;99.90;;;;;;4592182;19;19918;-35
2022/06/25 05:00:49;;;;;;;;;;;19.30;99.90;;;;;;4591716;19;19919;-36
2022/06/25 05:02:20;;;;;;;;;;;19.20;99.90;;;;;;4591183;19;19922;-36
2022/06/25 05:03:51;;;;;;;;;;;19.20;99.90;;;;;;4590973;19;19931;-38
2022/06/25 05:05:22;;;;;;;;;;;19.10;99.90;;;;;;4590550;19;19915;-37
2022/06/25 05:06:53;;;;;;;;;;;19.10;99.90;;;;;;4590182;19;19923;-40
2022/06/25 05:08:23;;;;;;;;;;;19.10;99.90;;;;;;4589806;19;19917;-37
2022/06/25 05:09:55;;;;;;;;;;;19.10;99.90;;;;;;4589968;19;19927;-39
2022/06/25 05:11:26;;;;;;;;;;;19.00;99.90;;;;;;4589796;19;19956;-39
2022/06/25 05:13:12;;;;;;;;;;;19.10;99.90;;;;;;4591105;19;19922;-40
2022/06/25 05:14:43;;;;;;;;;;;19.10;99.90;;;;;;4591549;19;19915;-39
2022/06/25 05:16:14;;;;;;;;;;;19.10;99.90;;;;;;4591709;19;19914;-37
2022/06/25 05:17:45;;;;;;;;;;;19.10;99.90;;;;;;4591154;19;19918;-38
2022/06/25 05:19:16;;;;;;;;;;;19.10;99.90;;;;;;4590930;19;19923;-40
2022/06/25 05:20:47;;;;;;;;;;;19.10;99.90;;;;;;4590251;19;19936;-35
2022/06/25 05:22:18;;;;;;;;;;;19.10;99.90;;;;;;4589873;19;19978;-38
2022/06/25 05:23:49;;;;;;;;;;;19.10;99.90;;;;;;4590002;19;20322;-36
2022/06/25 05:25:22;;;;;;;;;;;19.10;99.90;;;;;;4589540;19;19922;-37
2022/06/25 05:26:53;;;;;;;;;;;19.10;99.90;;;;;;4589506;19;20330;-40
2022/06/25 05:28:24;;;;;;;;;;;19.10;99.90;;;;;;4589516;19;19922;-37
2022/06/25 05:29:55;;;;;;;;;;;19.10;99.90;;;;;;4591122;19;19922;-35
2022/06/25 05:31:26;;;;;;;;;;;19.10;99.90;;;;;;4591146;19;19915;-37
2022/06/25 05:32:57;;;;;;;;;;;19.10;99.90;;;;;;4590735;19;19911;-35
2022/06/25 05:34:28;;;;;;;;;;;19.10;99.90;;;;;;4590491;19;20629;-35
2022/06/25 05:35:59;;;;;;;;;;;19.10;99.90;;;;;;4589912;19;19927;-40
2022/06/25 05:37:30;;;;;;;;;;;19.10;99.90;;;;;;4589666;19;19915;-36
2022/06/25 05:39:01;;;;;;;;;;;19.20;99.90;;;;;;4589041;19;19986;-36
2022/06/25 05:40:32;;;;;;;;;;;19.10;99.90;;;;;;4588512;19;19961;-37
2022/06/25 05:42:03;;;;;;;;;;;19.20;99.90;;;;;;4591325;19;19919;-33
2022/06/25 05:43:37;;;;;;;;;;;19.20;99.90;;;;;;4591353;19;19929;-36
2022/06/25 05:45:08;;;;;;;;;;;19.20;99.90;;;;;;4591067;19;19926;-34
2022/06/25 05:46:40;;;;;;;;;;;19.20;99.90;;;;;;4590725;19;19940;-36
2022/06/25 05:48:10;;;;;;;;;;;19.20;99.90;;;;;;4589272;19;19914;-34
2022/06/25 05:49:41;;;;;;;;;;;19.20;99.90;;;;;;4589793;19;19915;-35
2022/06/25 05:51:12;;;;;;;;;;;19.20;99.90;;;;;;4589382;19;19914;-36
2022/06/25 05:52:43;;;;;;;;;;;19.20;99.90;;;;;;4587002;19;19923;-40
2022/06/25 05:54:14;;;;;;;;;;;19.20;99.90;;;;;;4587056;19;19918;-40
2022/06/25 05:55:45;;;;;;;;;;;19.20;99.90;;;;;;4591066;19;19930;-37
2022/06/25 05:57:16;;;;;;;;;;;19.20;99.90;;;;;;4591143;19;19918;-34
2022/06/25 05:58:47;;;;;;;;;;;19.20;99.90;;;;;;4590341;19;19927;-36
2022/06/25 06:00:18;;;;;;;;;;;19.30;99.90;;;;;;4589433;19;19918;-33
2022/06/25 06:01:49;;;;;;;;;;;19.20;99.90;;;;;;4589289;19;19938;-39
2022/06/25 06:03:20;;;;;;;;;;;19.20;99.90;;;;;;4588432;19;19918;-42
2022/06/25 06:04:52;;;;;;;;;;;19.20;99.90;;;;;;4588611;19;20401;-37
2022/06/25 06:06:23;;;;;;;;;;;19.20;99.90;;;;;;4591505;19;20339;-35
2022/06/25 06:07:54;;;;;;;;;;;19.30;99.90;;;;;;4590226;19;19911;-33
2022/06/25 06:09:27;;;;;;;;;;;19.30;99.90;;;;;;4591065;19;19911;-37
2022/06/25 06:10:58;;;;;;;;;;;19.20;99.90;;;;;;4589453;19;19986;-36
2022/06/25 06:12:29;;;;;;;;;;;19.30;99.90;;;;;;4587350;19;19931;-40
2022/06/25 06:14:00;;;;;;;;;;;19.20;99.90;;;;;;4589967;19;19915;-39
2022/06/25 06:15:31;;;;;;;;;;;19.30;99.90;;;;;;4591124;19;19914;-34
2022/06/25 06:17:02;;;;;;;;;;;19.20;99.90;;;;;;4590698;19;19933;-34
2022/06/25 06:18:33;;;;;;;;;;;19.20;99.90;;;;;;4590875;19;19922;-38
2022/06/25 06:20:04;;;;;;;;;;;19.20;99.90;;;;;;4590532;19;19986;-38
2022/06/25 06:21:35;;;;;;;;;;;19.20;99.90;;;;;;4590905;19;19966;-37
2022/06/25 06:23:06;;;;;;;;;;;19.30;99.90;;;;;;4589600;19;19943;-37
2022/06/25 06:24:37;;;;;;;;;;;19.70;99.90;;;;;;4589768;19;19907;-37
2022/06/25 06:26:08;;;;;;;4.70;4.20;;;20.10;99.90;;;;;;4589705;19;19922;-34
2022/06/25 06:27:39;;;;;;;6.32;4.25;;;20.40;99.90;;;;;;4592578;19;20006;-35
2022/06/25 06:29:11;;;;;;;8.18;4.75;;;20.70;99.90;;;;;;4593924;19;20018;-43
2022/06/25 06:30:42;;;;;;;;;;;21.00;99.90;;;;;;4594888;19;20018;-37
2022/06/25 06:32:13;;;;;;;;;;;21.20;99.90;;;;;;4595735;19;19922;-34
2022/06/25 06:33:44;;;;;;;;;;;21.40;99.90;;;;;;4594873;19;19962;-36
2022/06/25 06:35:16;;;;;;;;;;;21.60;99.90;;;;;;4595114;19;19923;-36
2022/06/25 06:36:47;;;;;;;;;;;21.70;99.90;;;;;;4595232;19;20352;-39
2022/06/25 06:38:17;;;;;;;;;;;21.90;99.90;;;;;;4594911;19;19914;-36
2022/06/25 06:39:48;;;;;;;;;;;22.00;99.90;;;;;;4594368;19;20261;-36
2022/06/25 06:41:20;;;;;;;;;;;22.10;99.90;;;;;;4595077;19;19929;-35
2022/06/25 06:42:50;;;;;;;;;;;21.90;99.90;;;;;;4595170;19;19919;-39
2022/06/25 06:44:21;;;;;;;;;;;21.70;99.90;;;;;;4594288;19;19915;-38
2022/06/25 06:45:52;;;;;;;;;;;21.60;99.90;;;;;;4592085;19;19935;-36
2022/06/25 06:47:23;;;;;;;;;;;21.60;99.90;;;;;;4592456;19;20267;-38
2022/06/25 06:48:54;;;;;;;;;;;21.50;99.90;;;;;;4593763;19;19915;-36
2022/06/25 06:50:25;;;;;;;;;;;21.40;99.90;;;;;;4593331;19;19915;-35
2022/06/25 06:51:56;;;;;;;;;;;21.20;99.90;;;;;;4593496;19;19966;-35
2022/06/25 06:53:27;;;;;;;;;;;21.10;99.90;;;;;;4593858;19;19988;-34
2022/06/25 06:54:59;;;;;;;;;;;21.10;99.90;;;;;;4593824;19;19923;-41
2022/06/25 06:56:30;;;;;;;;;;;21.00;99.90;;;;;;4594140;19;19915;-31
2022/06/25 06:58:02;;;;;;;;;;;21.00;99.90;;;;;;4594508;19;19988;-38
2022/06/25 06:59:33;;;;;;;;;;;20.90;99.90;;;;;;4594964;19;19925;-36
2022/06/25 07:01:04;;;;;;;;;;;20.90;99.90;;;;;;4594035;19;19947;-32
2022/06/25 07:02:35;;;;;;;;;;;21.10;99.90;;;;;;4594413;19;19915;-35
2022/06/25 07:04:06;;;;;;;;;;;21.20;99.90;;;;;;4594306;19;19919;-37
2022/06/25 07:05:37;;;;;;;;;;;21.20;99.90;;;;;;4593446;19;19917;-36
2022/06/25 07:07:08;;;;;;;;;;;21.30;99.90;;;;;;4593296;19;19951;-33
2022/06/25 07:08:39;;;;;;;;;;;21.20;99.90;;;;;;4594398;19;19926;-38
2022/06/25 07:10:10;;;;;;;;;;;21.20;99.90;;;;;;4592997;19;19918;-41
2022/06/25 07:11:41;;;;;;;;;;;21.20;99.90;;;;;;4593910;19;19914;-36
2022/06/25 07:13:12;;;;;;;;;;;21.20;99.90;;;;;;4594195;19;19934;-34
2022/06/25 07:14:43;;;;;;;;;;;21.10;99.90;;;;;;4594103;19;19925;-32
2022/06/25 07:16:14;;;;;;;;;;;21.10;99.90;;;;;;4594886;19;19919;-37
2022/06/25 07:17:45;;;;;;;;;;;21.10;99.90;;;;;;4593654;19;20354;-36
2022/06/25 07:19:16;;;;;;;;;;;21.20;99.90;;;;;;4593956;19;19943;-34
2022/06/25 07:20:46;;;;;;;;;;;21.10;99.90;;;;;;4594210;19;19939;-36
2022/06/25 07:22:17;;;;;;;;;;;21.00;99.90;;;;;;4594699;19;19918;-35
2022/06/25 07:23:49;;;;;;;;;;;20.90;99.90;;;;;;4593602;19;19918;-35
2022/06/25 07:25:19;;;;;;;;;;;20.90;99.90;;;;;;4594099;19;20256;-35
2022/06/25 07:26:50;;;;;;;;;;;21.00;99.90;;;;;;4594507;19;19978;-34
2022/06/25 07:28:21;;;;;;;;;;;20.90;99.90;;;;;;4592002;19;19914;-34
2022/06/25 07:29:52;;;;;;;;;;;20.90;99.90;;;;;;4593553;19;20328;-35
2022/06/25 07:31:23;;;;;;;;;;;20.90;99.90;;;;;;4594376;19;19911;-38
2022/06/25 07:32:54;;;;;;;;;;;21.10;99.90;;;;;;4593829;19;19948;-38
2022/06/25 07:34:25;;;;;;;;;;;21.20;99.90;;;;;;4593410;19;19953;-37
2022/06/25 07:35:57;;;;;;;;;;;21.30;99.90;;;;;;4593709;19;19970;-38
2022/06/25 07:37:28;;;;;;;;;;;21.20;99.90;;;;;;4593518;19;20333;-36
2022/06/25 07:39:00;;;;;;;;;;;21.00;99.90;;;;;;4594043;19;19974;-34
2022/06/25 07:40:31;;;;;;;;;;;21.10;99.90;;;;;;4593423;19;19926;-39
2022/06/25 07:42:03;;;;;;;;;;;21.20;99.90;;;;;;4593842;19;19914;-36
2022/06/25 07:43:33;;;;;;;;;;;21.10;99.90;;;;;;4593915;19;19925;-38
2022/06/25 07:45:05;;;;;;;;;;;21.00;99.90;;;;;;4593491;19;19915;-36
2022/06/25 07:46:36;;;;;;;;;;;21.10;99.90;;;;;;4593097;19;20239;-35
2022/06/25 07:48:07;;;;;;;;;;;21.30;99.90;;;;;;4592225;19;20245;-35
2022/06/25 07:53:17;;;;;;;;;;;21.20;99.90;;;;;;4592067;19;19919;-39
2022/06/25 07:54:48;;;;;;;;;;;21.10;99.90;;;;;;4593242;19;19918;-33
2022/06/25 07:56:18;;;;;;;;;;;21.00;99.90;;;;;;4592233;19;19935;-35
2022/06/25 07:57:50;;;;;;;;;;;20.90;99.90;;;;;;4593278;19;19933;-36
2022/06/25 07:59:21;;;;;;;;;;;20.90;99.90;;;;;;4592757;19;20271;-34
2022/06/25 08:00:52;;;;;;;;;;;21.00;99.90;;;;;;4593008;19;20330;-38
2022/06/25 08:02:23;;;;;;;;;;;21.10;99.90;;;;;;4593076;19;19915;-34
2022/06/25 08:03:54;;;;;;;;;;;21.10;99.90;;;;;;4593517;19;20372;-36
2022/06/25 08:05:25;;;;;;;;;;;21.00;99.90;;;;;;4590512;19;19990;-34
2022/06/25 08:06:56;;;;;;;;;;;21.10;99.90;;;;;;4591521;19;19914;-38
2022/06/25 08:08:27;;;;;;;;;;;21.30;99.90;;;;;;4591231;19;20266;-38
2022/06/25 08:09:58;;;;;;;;;;;21.00;99.90;;;;;;4592704;19;19923;-34
2022/06/25 08:11:30;;;;;;;;;;;21.00;99.90;;;;;;4592982;19;19915;-37
2022/06/25 08:13:02;;;;;;;;;;;21.10;99.90;;;;;;4593252;19;19914;-34
2022/06/25 08:14:32;;;;;;;;;;;21.00;99.90;;;;;;4593333;19;19936;-37
2022/06/25 08:16:04;;;;;;;;;;;20.90;99.90;;;;;;4592668;19;19919;-34
2022/06/25 08:17:36;;;;;;;;;;;21.00;99.90;;;;;;4592902;19;19919;-35
2022/06/25 08:19:06;;;;;;;;;;;20.90;99.90;;;;;;4593025;19;19940;-39
2022/06/25 08:20:37;;;;;;;;;;;21.00;99.90;;;;;;4593163;19;19922;-37
2022/06/25 08:22:08;;;;;;;;;;;21.10;99.90;;;;;;4592394;19;19914;-39
2022/06/25 08:23:39;;;;;;;;;;;21.30;99.90;;;;;;4592889;19;19923;-38
2022/06/25 08:25:10;;;;;;;;;;;21.40;99.90;;;;;;4593010;19;19940;-36
2022/06/25 08:26:41;;;;;;;;;;;21.40;99.90;;;;;;4592792;19;19907;-33
2022/06/25 08:28:12;;;;;;;;;;;21.30;99.90;;;;;;4591814;19;19942;-38
2022/06/25 08:29:43;;;;;;;;;;;21.10;99.90;;;;;;4592499;19;19932;-36
2022/06/25 08:31:14;;;;;;;;;;;21.10;99.90;;;;;;4593281;19;20326;-36
2022/06/25 08:32:45;;;;;;;;;;;21.10;99.90;;;;;;4592389;19;19970;-35
2022/06/25 08:34:16;;;;;;;;;;;21.10;99.90;;;;;;4592596;19;19915;-37
2022/06/25 08:35:47;;;;;;;;;;;21.20;99.90;;;;;;4593015;19;19923;-38
2022/06/25 08:37:18;;;;;;;;;;;21.20;99.90;;;;;;4592369;19;19921;-36
2022/06/25 08:38:49;;;;;;;;;;;21.20;99.90;;;;;;4592147;19;19911;-33
2022/06/25 08:40:20;;;;;;;;;;;21.40;99.90;;;;;;4592137;19;20237;-36
2022/06/25 08:41:52;;;;;;;;;;;21.50;99.90;;;;;;4592963;19;20318;-37
2022/06/25 08:43:22;;;;;;;;;;;21.60;99.90;;;;;;4592735;19;19918;-39
2022/06/25 08:44:55;;;;;;;;;;;21.40;99.90;;;;;;4592232;19;19911;-36
2022/06/25 08:46:25;;;;;;;;;;;21.30;99.90;;;;;;4592216;19;19917;-36
2022/06/25 08:47:57;;;;;;;;;;;21.10;99.90;;;;;;4591980;19;19949;-41
2022/06/25 08:49:28;;;;;;;;;;;20.90;99.90;;;;;;4590557;19;20303;-39
2022/06/25 08:50:59;;;;;;;;;;;20.90;99.90;;;;;;4592003;19;19911;-36
2022/06/25 08:52:30;;;;;;;;;;;20.80;99.90;;;;;;4592681;19;19914;-36
2022/06/25 08:54:02;;;;;;;;;;;20.90;99.90;;;;;;4590913;19;19915;-40
2022/06/25 08:55:33;;;;;;;;;;;20.80;99.90;;;;;;4591086;19;19921;-35
2022/06/25 08:57:04;;;;;;;;;;;20.70;99.90;;;;;;4592137;19;19915;-38
2022/06/25 08:58:35;;;;;;;;;;;20.80;99.90;;;;;;4591941;19;20395;-38
2022/06/25 09:00:07;;;;;;;;;;;20.90;99.90;;;;;;4592066;19;20334;-36
2022/06/25 09:01:38;;;;;;;;;;;21.00;99.90;;;;;;4591711;19;20334;-38
2022/06/25 09:03:09;;;;;;;;;;;21.00;99.90;;;;;;4590556;19;19989;-37